sensor_id;sensor_type;location;lat;lon;timestamp;pressure;altitude;pressure_sealevel;temperature;humidity
48089;BME280;33867;50.314;7.802;2022-10-15T00:06:45;99580.19;;;14.30;95.04
48089;BME280;33867;50.314;7.802;2022-10-15T00:10:04;99581.47;;;14.04;93.95
48089;BME280;33867;50.314;7.802;2022-10-15T00:13:24;99584.66;;;14.08;93.89
48089;BME280;33867;50.314;7.802;2022-10-15T00:16:43;99599.22;;;14.07;93.71
48089;BME280;33867;50.314;7.802;2022-10-15T00:20:05;99591.78;;;14.09;93.32
48089;BME280;33867;50.314;7.802;2022-10-15T00:23:24;99586.25;;;14.17;92.90
48089;BME280;33867;50.314;7.802;2022-10-15T00:26:44;99583.34;;;14.04;93.12
48089;BME280;33867;50.314;7.802;2022-10-15T00:33:34;99573.63;;;13.95;94.61
48089;BME280;33867;50.314;7.802;2022-10-15T00:36:53;99573.63;;;13.95;94.20
48089;BME280;33867;50.314;7.802;2022-10-15T00:40:13;99587.84;;;14.12;94.17
48089;BME280;33867;50.314;7.802;2022-10-15T00:43:45;99584.28;;;14.11;93.46
48089;BME280;33867;50.314;7.802;2022-10-15T00:47:16;99590.81;;;14.17;93.22
48089;BME280;33867;50.314;7.802;2022-10-15T00:50:36;99592.91;;;14.44;93.06
48089;BME280;33867;50.314;7.802;2022-10-15T00:53:55;99574.03;;;14.21;92.22
48089;BME280;33867;50.314;7.802;2022-10-15T00:57:14;99577.66;;;13.99;93.36
48089;BME280;33867;50.314;7.802;2022-10-15T01:00:34;99581.53;;;13.96;93.19
48089;BME280;33867;50.314;7.802;2022-10-15T01:03:54;99579.72;;;14.12;92.91
48089;BME280;33867;50.314;7.802;2022-10-15T01:07:13;99577.22;;;14.10;93.00
48089;BME280;33867;50.314;7.802;2022-10-15T01:10:43;99571.69;;;14.18;92.22
48089;BME280;33867;50.314;7.802;2022-10-15T01:14:22;99568.59;;;14.07;92.90
48089;BME280;33867;50.314;7.802;2022-10-15T01:17:56;99558.78;;;14.20;93.72
48089;BME280;33867;50.314;7.802;2022-10-15T01:21:30;99561.50;;;14.20;92.79
48089;BME280;33867;50.314;7.802;2022-10-15T01:25:09;99567.03;;;14.12;92.38
48089;BME280;33867;50.314;7.802;2022-10-15T01:28:46;99564.59;;;14.17;92.97
48089;BME280;33867;50.314;7.802;2022-10-15T01:32:28;99565.31;;;13.96;92.98
48089;BME280;33867;50.314;7.802;2022-10-15T01:35:50;99563.81;;;13.94;94.03
48089;BME280;33867;50.314;7.802;2022-10-15T02:01:20;99539.84;;;14.05;93.85
48089;BME280;33867;50.314;7.802;2022-10-15T02:04:40;99562.53;;;13.90;93.37
48089;BME280;33867;50.314;7.802;2022-10-15T02:08:07;99564.56;;;13.88;93.92
48089;BME280;33867;50.314;7.802;2022-10-15T02:23:17;99557.88;;;13.98;93.01
48089;BME280;33867;50.314;7.802;2022-10-15T02:26:38;99552.28;;;14.00;93.74
48089;BME280;33867;50.314;7.802;2022-10-15T02:30:01;99539.31;;;14.10;93.39
48089;BME280;33867;50.314;7.802;2022-10-15T02:33:24;99542.94;;;14.17;92.89
48089;BME280;33867;50.314;7.802;2022-10-15T02:36:45;99546.09;;;14.06;92.72
48089;BME280;33867;50.314;7.802;2022-10-15T02:40:05;99544.88;;;13.94;93.85
48089;BME280;33867;50.314;7.802;2022-10-15T02:43:24;99542.47;;;13.99;93.13
48089;BME280;33867;50.314;7.802;2022-10-15T02:46:44;99544.53;;;14.26;92.76
48089;BME280;33867;50.314;7.802;2022-10-15T03:39:17;99571.88;;;14.02;92.29
48089;BME280;33867;50.314;7.802;2022-10-15T03:42:37;99568.25;;;14.24;95.74
48089;BME280;33867;50.314;7.802;2022-10-15T03:46:01;99563.94;;;14.15;92.87
48089;BME280;33867;50.314;7.802;2022-10-15T03:49:20;99570.84;;;14.18;92.51
48089;BME280;33867;50.314;7.802;2022-10-15T03:52:40;99565.81;;;14.29;91.76
48089;BME280;33867;50.314;7.802;2022-10-15T03:56:04;99566.44;;;14.31;90.99
48089;BME280;33867;50.314;7.802;2022-10-15T04:02:57;99571.22;;;14.29;91.97
48089;BME280;33867;50.314;7.802;2022-10-15T04:06:21;99582.69;;;14.31;93.38
48089;BME280;33867;50.314;7.802;2022-10-15T04:09:40;99587.56;;;14.36;90.79
48089;BME280;33867;50.314;7.802;2022-10-15T04:13:22;99575.06;;;14.35;94.81
48089;BME280;33867;50.314;7.802;2022-10-15T04:16:41;99571.66;;;13.89;96.88
48089;BME280;33867;50.314;7.802;2022-10-15T04:38:16;99602.69;;;14.30;93.58
48089;BME280;33867;50.314;7.802;2022-10-15T04:45:22;99579.13;;;13.87;98.03
48089;BME280;33867;50.314;7.802;2022-10-15T04:48:41;99577.72;;;13.76;100.00
48089;BME280;33867;50.314;7.802;2022-10-15T04:59:06;99590.41;;;13.90;94.80
48089;BME280;33867;50.314;7.802;2022-10-15T05:02:24;99589.19;;;13.93;95.34
48089;BME280;33867;50.314;7.802;2022-10-15T05:05:50;99584.81;;;13.92;96.12
48089;BME280;33867;50.314;7.802;2022-10-15T05:09:09;99589.59;;;13.90;95.86
48089;BME280;33867;50.314;7.802;2022-10-15T05:12:28;99602.28;;;14.04;95.65
48089;BME280;33867;50.314;7.802;2022-10-15T05:15:47;99599.13;;;14.15;95.39
48089;BME280;33867;50.314;7.802;2022-10-15T05:19:07;99613.25;;;14.25;94.47
48089;BME280;33867;50.314;7.802;2022-10-15T05:22:24;99606.16;;;14.10;94.94
48089;BME280;33867;50.314;7.802;2022-10-15T05:25:49;99598.31;;;13.77;98.78
48089;BME280;33867;50.314;7.802;2022-10-15T05:29:13;99603.66;;;13.85;99.33
48089;BME280;33867;50.314;7.802;2022-10-15T05:32:32;99614.53;;;14.00;96.44
48089;BME280;33867;50.314;7.802;2022-10-15T05:35:51;99635.09;;;14.09;94.70
48089;BME280;33867;50.314;7.802;2022-10-15T05:39:13;99639.81;;;14.07;95.12
48089;BME280;33867;50.314;7.802;2022-10-15T05:42:35;99632.75;;;13.83;98.98
48089;BME280;33867;50.314;7.802;2022-10-15T05:45:54;99637.53;;;13.58;100.00
48089;BME280;33867;50.314;7.802;2022-10-15T05:49:13;99636.50;;;13.59;100.00
48089;BME280;33867;50.314;7.802;2022-10-15T05:52:39;99635.22;;;13.70;100.00
48089;BME280;33867;50.314;7.802;2022-10-15T05:56:09;99632.28;;;13.80;99.68
48089;BME280;33867;50.314;7.802;2022-10-15T05:59:28;99635.81;;;14.18;95.12
48089;BME280;33867;50.314;7.802;2022-10-15T06:02:47;99638.66;;;14.24;95.05
48089;BME280;33867;50.314;7.802;2022-10-15T06:06:20;99629.19;;;14.20;96.53
48089;BME280;33867;50.314;7.802;2022-10-15T06:23:19;99641.03;;;14.57;92.07
48089;BME280;33867;50.314;7.802;2022-10-15T06:26:39;99642.66;;;14.28;92.31
48089;BME280;33867;50.314;7.802;2022-10-15T06:47:34;99686.72;;;14.22;94.79
48089;BME280;33867;50.314;7.802;2022-10-15T06:50:53;99684.47;;;14.11;97.53
48089;BME280;33867;50.314;7.802;2022-10-15T06:54:12;99687.22;;;14.03;97.13
48089;BME280;33867;50.314;7.802;2022-10-15T06:57:31;99687.56;;;14.23;95.65
48089;BME280;33867;50.314;7.802;2022-10-15T07:00:50;99687.38;;;14.24;94.51
48089;BME280;33867;50.314;7.802;2022-10-15T07:04:10;99692.88;;;14.31;94.46
48089;BME280;33867;50.314;7.802;2022-10-15T07:07:28;99695.72;;;14.38;93.93
48089;BME280;33867;50.314;7.802;2022-10-15T07:10:48;99702.88;;;14.53;93.17
48089;BME280;33867;50.314;7.802;2022-10-15T07:14:07;99690.81;;;14.56;94.36
48089;BME280;33867;50.314;7.802;2022-10-15T07:17:27;99692.34;;;14.36;95.35
48089;BME280;33867;50.314;7.802;2022-10-15T07:38:42;99712.13;;;14.59;97.46
48089;BME280;33867;50.314;7.802;2022-10-15T07:42:02;99715.88;;;14.73;97.17
48089;BME280;33867;50.314;7.802;2022-10-15T07:45:21;99715.03;;;14.72;96.52
48089;BME280;33867;50.314;7.802;2022-10-15T07:48:40;99711.09;;;14.60;99.31
48089;BME280;33867;50.314;7.802;2022-10-15T07:51:59;99711.47;;;14.57;99.15
48089;BME280;33867;50.314;7.802;2022-10-15T07:55:21;99712.50;;;15.00;97.22
48089;BME280;33867;50.314;7.802;2022-10-15T07:58:40;99703.59;;;15.21;95.84
48089;BME280;33867;50.314;7.802;2022-10-15T08:02:00;99705.31;;;15.07;96.18
48089;BME280;33867;50.314;7.802;2022-10-15T08:05:19;99714.34;;;15.14;95.00
48089;BME280;33867;50.314;7.802;2022-10-15T08:08:38;99713.50;;;15.14;93.87
48089;BME280;33867;50.314;7.802;2022-10-15T08:11:57;99707.44;;;15.12;94.18
48089;BME280;33867;50.314;7.802;2022-10-15T08:15:16;99711.22;;;14.81;97.23
48089;BME280;33867;50.314;7.802;2022-10-15T08:18:35;99710.91;;;14.91;96.21
48089;BME280;33867;50.314;7.802;2022-10-15T08:25:33;99714.84;;;15.18;94.64
48089;BME280;33867;50.314;7.802;2022-10-15T08:28:52;99707.06;;;15.30;94.20
48089;BME280;33867;50.314;7.802;2022-10-15T08:32:12;99706.47;;;15.34;94.10
48089;BME280;33867;50.314;7.802;2022-10-15T08:35:31;99706.13;;;15.59;93.12
48089;BME280;33867;50.314;7.802;2022-10-15T08:38:54;99701.53;;;15.59;93.37
48089;BME280;33867;50.314;7.802;2022-10-15T08:46:25;99705.47;;;15.93;92.23
48089;BME280;33867;50.314;7.802;2022-10-15T08:49:50;99699.13;;;16.28;90.79
48089;BME280;33867;50.314;7.802;2022-10-15T08:53:14;99691.13;;;16.48;91.15
48089;BME280;33867;50.314;7.802;2022-10-15T08:56:36;99703.53;;;16.85;88.43
48089;BME280;33867;50.314;7.802;2022-10-15T09:15:52;99704.97;;;17.83;85.58
48089;BME280;33867;50.314;7.802;2022-10-15T09:19:16;99700.56;;;17.69;86.61
48089;BME280;33867;50.314;7.802;2022-10-15T09:22:36;99701.44;;;17.76;86.60
48089;BME280;33867;50.314;7.802;2022-10-15T09:26:01;99706.47;;;17.93;85.76
48089;BME280;33867;50.314;7.802;2022-10-15T09:29:32;99707.97;;;18.02;86.26
48089;BME280;33867;50.314;7.802;2022-10-15T09:32:59;99700.63;;;18.22;85.01
48089;BME280;33867;50.314;7.802;2022-10-15T09:36:38;99696.00;;;18.56;83.18
48089;BME280;33867;50.314;7.802;2022-10-15T09:40:33;99694.47;;;18.99;81.01
48089;BME280;33867;50.314;7.802;2022-10-15T09:43:50;99700.19;;;18.58;81.04
48089;BME280;33867;50.314;7.802;2022-10-15T09:47:28;99695.59;;;18.52;82.44
48089;BME280;33867;50.314;7.802;2022-10-15T09:50:57;99694.09;;;17.97;82.63
48089;BME280;33867;50.314;7.802;2022-10-15T09:54:28;99697.50;;;18.25;84.38
48089;BME280;33867;50.314;7.802;2022-10-15T09:57:52;99703.13;;;18.57;84.53
48089;BME280;33867;50.314;7.802;2022-10-15T10:01:23;99702.53;;;18.41;84.38
48089;BME280;33867;50.314;7.802;2022-10-15T10:04:43;99706.94;;;17.42;84.09
48089;BME280;33867;50.314;7.802;2022-10-15T10:08:30;99703.44;;;17.61;85.71
48089;BME280;33867;50.314;7.802;2022-10-15T10:11:57;99701.84;;;17.87;86.76
48089;BME280;33867;50.314;7.802;2022-10-15T10:15:32;99712.38;;;18.16;85.92
48089;BME280;33867;50.314;7.802;2022-10-15T10:19:13;99711.13;;;18.12;85.14
48089;BME280;33867;50.314;7.802;2022-10-15T10:22:46;99714.19;;;17.82;86.18
48089;BME280;33867;50.314;7.802;2022-10-15T10:26:08;99721.97;;;17.99;86.34
48089;BME280;33867;50.314;7.802;2022-10-15T10:33:06;99705.56;;;17.66;84.16
48089;BME280;33867;50.314;7.802;2022-10-15T10:36:32;99710.56;;;17.62;86.41
48089;BME280;33867;50.314;7.802;2022-10-15T10:51:13;99693.16;;;17.57;85.24
48089;BME280;33867;50.314;7.802;2022-10-15T10:54:32;99684.69;;;17.93;85.94
48089;BME280;33867;50.314;7.802;2022-10-15T10:57:54;99682.16;;;17.98;83.02
48089;BME280;33867;50.314;7.802;2022-10-15T11:16:51;99652.63;;;18.41;84.42
48089;BME280;33867;50.314;7.802;2022-10-15T11:23:56;99647.59;;;17.98;80.09
48089;BME280;33867;50.314;7.802;2022-10-15T11:38:44;99640.16;;;18.91;83.43
48089;BME280;33867;50.314;7.802;2022-10-15T11:42:17;99635.91;;;19.09;83.10
48089;BME280;33867;50.314;7.802;2022-10-15T11:49:41;99644.25;;;19.20;83.93
48089;BME280;33867;50.314;7.802;2022-10-15T11:56:48;99627.78;;;18.95;83.68
48089;BME280;33867;50.314;7.802;2022-10-15T12:00:18;99633.41;;;19.07;83.87
48089;BME280;33867;50.314;7.802;2022-10-15T12:03:56;99620.81;;;18.99;83.98
48089;BME280;33867;50.314;7.802;2022-10-15T12:07:21;99611.75;;;19.06;83.83
48089;BME280;33867;50.314;7.802;2022-10-15T12:14:52;99610.47;;;18.44;80.13
48089;BME280;33867;50.314;7.802;2022-10-15T12:18:19;99602.44;;;18.75;83.23
48089;BME280;33867;50.314;7.802;2022-10-15T12:28:55;99594.97;;;18.31;82.55
48089;BME280;33867;50.314;7.802;2022-10-15T12:44:27;99589.28;;;19.48;80.37
48089;BME280;33867;50.314;7.802;2022-10-15T12:47:55;99584.44;;;19.82;79.58
48089;BME280;33867;50.314;7.802;2022-10-15T12:51:31;99579.47;;;19.97;79.19
48089;BME280;33867;50.314;7.802;2022-10-15T12:54:51;99587.03;;;20.02;77.98
48089;BME280;33867;50.314;7.802;2022-10-15T12:58:32;99577.66;;;19.66;78.51
48089;BME280;33867;50.314;7.802;2022-10-15T13:01:52;99576.94;;;19.77;77.58
48089;BME280;33867;50.314;7.802;2022-10-15T13:05:26;99587.97;;;19.89;76.53
48089;BME280;33867;50.314;7.802;2022-10-15T13:08:48;99589.13;;;20.00;77.83
48089;BME280;33867;50.314;7.802;2022-10-15T13:12:20;99574.03;;;19.34;77.15
48089;BME280;33867;50.314;7.802;2022-10-15T13:15:40;99581.16;;;19.35;77.78
48089;BME280;33867;50.314;7.802;2022-10-15T13:18:59;99582.47;;;18.88;78.51
48089;BME280;33867;50.314;7.802;2022-10-15T13:22:25;99585.03;;;19.21;80.84
48089;BME280;33867;50.314;7.802;2022-10-15T13:25:44;99585.94;;;19.46;78.18
48089;BME280;33867;50.314;7.802;2022-10-15T13:29:03;99582.63;;;18.99;80.25
48089;BME280;33867;50.314;7.802;2022-10-15T13:32:24;99589.19;;;18.85;80.87
48089;BME280;33867;50.314;7.802;2022-10-15T13:35:43;99589.88;;;18.74;79.62
48089;BME280;33867;50.314;7.802;2022-10-15T13:39:05;99573.00;;;20.17;74.66
48089;BME280;33867;50.314;7.802;2022-10-15T13:42:25;99579.47;;;20.84;74.09
48089;BME280;33867;50.314;7.802;2022-10-15T13:45:52;99589.69;;;22.20;71.95
48089;BME280;33867;50.314;7.802;2022-10-15T13:52:46;99586.38;;;21.76;71.74
48089;BME280;33867;50.314;7.802;2022-10-15T13:56:23;99583.72;;;21.58;67.67
48089;BME280;33867;50.314;7.802;2022-10-15T14:13:50;99588.16;;;20.12;74.26
48089;BME280;33867;50.314;7.802;2022-10-15T14:17:28;99579.41;;;19.47;75.53
48089;BME280;33867;50.314;7.802;2022-10-15T14:20:48;99586.75;;;19.53;78.21
48089;BME280;33867;50.314;7.802;2022-10-15T14:24:16;99577.22;;;19.31;77.96
48089;BME280;33867;50.314;7.802;2022-10-15T14:27:37;99576.25;;;19.12;78.89
48089;BME280;33867;50.314;7.802;2022-10-15T14:30:56;99576.31;;;19.37;79.76
48089;BME280;33867;50.314;7.802;2022-10-15T14:34:28;99578.41;;;19.42;79.91
48089;BME280;33867;50.314;7.802;2022-10-15T14:37:59;99588.84;;;19.13;79.75
48089;BME280;33867;50.314;7.802;2022-10-15T14:44:45;99606.31;;;18.28;81.51
48089;BME280;33867;50.314;7.802;2022-10-15T14:48:08;99601.00;;;18.46;83.20
48089;BME280;33867;50.314;7.802;2022-10-15T14:51:29;99601.41;;;18.63;82.63
48089;BME280;33867;50.314;7.802;2022-10-15T14:58:23;99602.47;;;18.62;82.44
48089;BME280;33867;50.314;7.802;2022-10-15T15:01:55;99608.38;;;18.32;82.38
48089;BME280;33867;50.314;7.802;2022-10-15T15:05:19;99614.25;;;18.29;82.26
48089;BME280;33867;50.314;7.802;2022-10-15T15:08:39;99611.75;;;18.21;82.72
48089;BME280;33867;50.314;7.802;2022-10-15T15:15:38;99622.25;;;18.24;83.22
48089;BME280;33867;50.314;7.802;2022-10-15T15:18:58;99616.78;;;18.18;83.46
48089;BME280;33867;50.314;7.802;2022-10-15T15:22:25;99629.16;;;18.27;83.21
48089;BME280;33867;50.314;7.802;2022-10-15T15:25:45;99617.44;;;18.06;83.35
48089;BME280;33867;50.314;7.802;2022-10-15T15:29:11;99618.06;;;18.02;83.40
48089;BME280;33867;50.314;7.802;2022-10-15T15:32:31;99618.88;;;18.22;83.23
48089;BME280;33867;50.314;7.802;2022-10-15T15:35:54;99617.41;;;18.39;83.28
48089;BME280;33867;50.314;7.802;2022-10-15T15:39:17;99612.41;;;17.90;83.01
48089;BME280;33867;50.314;7.802;2022-10-15T15:42:36;99605.84;;;17.58;84.50
48089;BME280;33867;50.314;7.802;2022-10-15T15:45:55;99617.84;;;17.83;84.58
48089;BME280;33867;50.314;7.802;2022-10-15T15:52:52;99620.50;;;17.57;84.64
48089;BME280;33867;50.314;7.802;2022-10-15T15:56:11;99623.09;;;17.78;84.72
48089;BME280;33867;50.314;7.802;2022-10-15T15:59:30;99622.63;;;17.68;86.11
48089;BME280;33867;50.314;7.802;2022-10-15T16:02:49;99625.94;;;17.44;85.83
48089;BME280;33867;50.314;7.802;2022-10-15T16:06:08;99624.25;;;17.43;85.74
48089;BME280;33867;50.314;7.802;2022-10-15T16:16:29;99649.75;;;17.35;86.54
48089;BME280;33867;50.314;7.802;2022-10-15T16:19:48;99643.28;;;17.30;86.78
48089;BME280;33867;50.314;7.802;2022-10-15T16:23:07;99653.75;;;16.91;88.51
48089;BME280;33867;50.314;7.802;2022-10-15T16:26:26;99667.56;;;16.90;89.20
48089;BME280;33867;50.314;7.802;2022-10-15T16:29:45;99664.00;;;16.89;89.07
48089;BME280;33867;50.314;7.802;2022-10-15T16:33:04;99666.66;;;16.76;89.59
48089;BME280;33867;50.314;7.802;2022-10-15T16:36:24;99671.66;;;16.73;89.44
48089;BME280;33867;50.314;7.802;2022-10-15T16:39:43;99674.72;;;16.98;88.46
48089;BME280;33867;50.314;7.802;2022-10-15T16:43:02;99673.72;;;17.05;88.92
48089;BME280;33867;50.314;7.802;2022-10-15T16:46:21;99676.88;;;17.09;89.04
48089;BME280;33867;50.314;7.802;2022-10-15T16:49:41;99689.19;;;17.05;87.88
48089;BME280;33867;50.314;7.802;2022-10-15T16:53:00;99681.91;;;17.12;87.47
48089;BME280;33867;50.314;7.802;2022-10-15T16:56:23;99689.00;;;17.06;87.26
48089;BME280;33867;50.314;7.802;2022-10-15T16:59:42;99699.31;;;17.17;88.05
48089;BME280;33867;50.314;7.802;2022-10-15T17:03:01;99704.03;;;17.02;87.44
48089;BME280;33867;50.314;7.802;2022-10-15T17:06:23;99699.47;;;17.09;88.80
48089;BME280;33867;50.314;7.802;2022-10-15T17:16:49;99707.63;;;16.75;91.39
48089;BME280;33867;50.314;7.802;2022-10-15T17:20:09;99719.75;;;16.72;89.62
48089;BME280;33867;50.314;7.802;2022-10-15T17:23:28;99717.69;;;16.81;89.81
48089;BME280;33867;50.314;7.802;2022-10-15T17:26:49;99735.25;;;16.78;91.11
48089;BME280;33867;50.314;7.802;2022-10-15T17:30:08;99743.22;;;16.80;90.33
48089;BME280;33867;50.314;7.802;2022-10-15T17:33:28;99750.03;;;16.97;88.47
48089;BME280;33867;50.314;7.802;2022-10-15T17:36:48;99748.00;;;16.78;89.96
48089;BME280;33867;50.314;7.802;2022-10-15T17:43:52;99762.28;;;16.58;91.51
48089;BME280;33867;50.314;7.802;2022-10-15T17:47:11;99771.75;;;16.41;92.17
48089;BME280;33867;50.314;7.802;2022-10-15T17:50:31;99780.53;;;16.43;91.93
48089;BME280;33867;50.314;7.802;2022-10-15T17:53:51;99785.84;;;16.30;94.44
48089;BME280;33867;50.314;7.802;2022-10-15T17:57:11;99782.22;;;16.44;93.00
48089;BME280;33867;50.314;7.802;2022-10-15T18:14:43;99795.44;;;16.26;91.96
48089;BME280;33867;50.314;7.802;2022-10-15T18:18:02;99806.78;;;15.93;94.58
48089;BME280;33867;50.314;7.802;2022-10-15T18:35:25;99826.13;;;15.39;98.82
48089;BME280;33867;50.314;7.802;2022-10-15T18:38:44;99830.97;;;15.59;96.29
48089;BME280;33867;50.314;7.802;2022-10-15T18:42:03;99837.34;;;15.36;99.12
48089;BME280;33867;50.314;7.802;2022-10-15T18:45:22;99847.16;;;15.52;96.31
48089;BME280;33867;50.314;7.802;2022-10-15T18:48:41;99837.81;;;15.40;98.62
48089;BME280;33867;50.314;7.802;2022-10-15T18:52:00;99837.44;;;15.43;98.00
48089;BME280;33867;50.314;7.802;2022-10-15T18:55:20;99832.84;;;15.43;100.00
48089;BME280;33867;50.314;7.802;2022-10-15T18:58:40;99821.31;;;15.56;96.42
48089;BME280;33867;50.314;7.802;2022-10-15T19:12:58;99834.53;;;15.44;95.86
48089;BME280;33867;50.314;7.802;2022-10-15T19:16:21;99832.47;;;15.32;95.03
48089;BME280;33867;50.314;7.802;2022-10-15T19:19:40;99843.53;;;15.30;95.40
48089;BME280;33867;50.314;7.802;2022-10-15T19:23:00;99839.09;;;15.14;96.44
48089;BME280;33867;50.314;7.802;2022-10-15T19:26:19;99837.78;;;15.10;95.08
48089;BME280;33867;50.314;7.802;2022-10-15T19:37:24;99855.66;;;15.05;95.33
48089;BME280;33867;50.314;7.802;2022-10-15T19:40:44;99865.38;;;14.76;100.00
48089;BME280;33867;50.314;7.802;2022-10-15T19:44:04;99861.78;;;14.84;98.48
48089;BME280;33867;50.314;7.802;2022-10-15T19:47:25;99865.00;;;14.79;99.37
48089;BME280;33867;50.314;7.802;2022-10-15T19:54:22;99869.34;;;14.88;96.54
48089;BME280;33867;50.314;7.802;2022-10-15T19:57:41;99878.81;;;14.93;95.82
48089;BME280;33867;50.314;7.802;2022-10-15T20:01:02;99895.09;;;14.93;95.13
48089;BME280;33867;50.314;7.802;2022-10-15T20:04:28;99888.81;;;14.92;97.31
48089;BME280;33867;50.314;7.802;2022-10-15T20:07:47;99884.94;;;14.86;95.58
48089;BME280;33867;50.314;7.802;2022-10-15T20:11:07;99882.63;;;14.83;96.49
48089;BME280;33867;50.314;7.802;2022-10-15T20:14:26;99881.00;;;14.74;98.05
48089;BME280;33867;50.314;7.802;2022-10-15T20:17:45;99872.06;;;14.43;100.00
48089;BME280;33867;50.314;7.802;2022-10-15T20:25:08;99897.81;;;14.47;99.56
48089;BME280;33867;50.314;7.802;2022-10-15T20:28:27;99915.34;;;14.59;97.53
48089;BME280;33867;50.314;7.802;2022-10-15T20:39:01;99939.63;;;14.90;96.08
48089;BME280;33867;50.314;7.802;2022-10-15T20:42:20;99946.63;;;14.61;100.00
48089;BME280;33867;50.314;7.802;2022-10-15T20:45:43;99933.28;;;14.60;99.93
48089;BME280;33867;50.314;7.802;2022-10-15T20:49:05;99933.28;;;14.60;98.54
48089;BME280;33867;50.314;7.802;2022-10-15T20:55:51;99932.25;;;14.61;98.97
48089;BME280;33867;50.314;7.802;2022-10-15T20:59:11;99944.69;;;14.47;99.95
48089;BME280;33867;50.314;7.802;2022-10-15T21:02:13;99947.47;;;14.62;98.48
48089;BME280;33867;50.314;7.802;2022-10-15T21:05:32;99957.50;;;14.53;99.13
48089;BME280;33867;50.314;7.802;2022-10-15T21:08:51;99965.16;;;14.42;98.94
48089;BME280;33867;50.314;7.802;2022-10-15T21:26:16;99955.91;;;13.97;100.00
48089;BME280;33867;50.314;7.802;2022-10-15T21:29:35;99952.50;;;14.03;100.00
48089;BME280;33867;50.314;7.802;2022-10-15T21:32:54;99969.09;;;14.00;100.00
48089;BME280;33867;50.314;7.802;2022-10-15T21:36:16;99969.09;;;14.00;99.21
48089;BME280;33867;50.314;7.802;2022-10-15T21:39:43;99982.19;;;13.88;100.00
48089;BME280;33867;50.314;7.802;2022-10-15T21:43:02;99989.06;;;13.99;98.72
48089;BME280;33867;50.314;7.802;2022-10-15T21:46:22;99990.13;;;13.90;99.76
48089;BME280;33867;50.314;7.802;2022-10-15T22:00:35;99981.34;;;13.88;99.37
48089;BME280;33867;50.314;7.802;2022-10-15T22:04:00;99992.09;;;13.96;97.84
48089;BME280;33867;50.314;7.802;2022-10-15T22:07:19;99996.91;;;13.86;96.90
48089;BME280;33867;50.314;7.802;2022-10-15T22:10:38;99999.09;;;13.82;96.77
48089;BME280;33867;50.314;7.802;2022-10-15T22:14:00;100009.97;;;13.66;99.16
48089;BME280;33867;50.314;7.802;2022-10-15T22:17:19;100003.53;;;13.75;98.41
48089;BME280;33867;50.314;7.802;2022-10-15T22:20:39;100010.97;;;13.57;100.00
48089;BME280;33867;50.314;7.802;2022-10-15T22:24:00;100006.44;;;13.41;100.00
48089;BME280;33867;50.314;7.802;2022-10-15T22:27:19;100017.59;;;13.46;100.00
48089;BME280;33867;50.314;7.802;2022-10-15T22:30:38;100012.22;;;13.38;100.00
48089;BME280;33867;50.314;7.802;2022-10-15T22:33:58;100018.44;;;13.46;100.00
48089;BME280;33867;50.314;7.802;2022-10-15T22:37:17;100021.31;;;13.53;98.90
48089;BME280;33867;50.314;7.802;2022-10-15T22:40:36;100021.31;;;13.53;100.00
48089;BME280;33867;50.314;7.802;2022-10-15T22:43:56;100019.44;;;13.54;98.26
48089;BME280;33867;50.314;7.802;2022-10-15T22:47:15;100021.81;;;13.65;97.62
48089;BME280;33867;50.314;7.802;2022-10-15T22:50:34;100015.91;;;13.53;98.74
48089;BME280;33867;50.314;7.802;2022-10-15T22:53:55;100007.13;;;13.51;98.43
48089;BME280;33867;50.314;7.802;2022-10-15T22:57:15;100021.13;;;13.46;97.01
48089;BME280;33867;50.314;7.802;2022-10-15T23:04:46;100034.19;;;13.27;100.00
48089;BME280;33867;50.314;7.802;2022-10-15T23:08:47;100048.34;;;13.21;100.00
48089;BME280;33867;50.314;7.802;2022-10-15T23:12:37;100049.66;;;13.08;100.00
48089;BME280;33867;50.314;7.802;2022-10-15T23:19:25;100037.56;;;13.29;100.00
48089;BME280;33867;50.314;7.802;2022-10-15T23:22:44;100041.94;;;13.30;99.16
48089;BME280;33867;50.314;7.802;2022-10-15T23:26:03;100037.38;;;13.30;99.00
48089;BME280;33867;50.314;7.802;2022-10-15T23:29:24;100032.81;;;13.31;99.63
48089;BME280;33867;50.314;7.802;2022-10-15T23:32:44;100036.69;;;13.20;98.28
48089;BME280;33867;50.314;7.802;2022-10-15T23:36:03;100039.22;;;13.22;98.90
48089;BME280;33867;50.314;7.802;2022-10-15T23:39:24;100044.59;;;13.05;99.49
48089;BME280;33867;50.314;7.802;2022-10-15T23:42:43;100055.75;;;13.02;100.00
48089;BME280;33867;50.314;7.802;2022-10-15T23:46:03;100061.16;;;13.02;98.98
48089;BME280;33867;50.314;7.802;2022-10-15T23:49:22;100062.66;;;13.13;98.51
48089;BME280;33867;50.314;7.802;2022-10-15T23:52:41;100047.25;;;12.81;100.00
48089;BME280;33867;50.314;7.802;2022-10-15T23:56:01;100050.66;;;12.91;100.00
